createdAt,value
2023-05-24T00:03:11.534Z,11.60
2023-05-24T00:08:16.977Z,8.30
2023-05-24T00:13:22.464Z,12.50
2023-05-24T00:18:27.966Z,12.50
2023-05-24T00:23:33.590Z,8.20
2023-05-24T00:28:38.970Z,9.80
2023-05-24T00:33:44.459Z,9.60
2023-05-24T00:38:50.477Z,8.90
2023-05-24T00:43:55.824Z,10.50
2023-05-24T00:49:01.828Z,12.00
2023-05-24T00:54:09.382Z,12.00
2023-05-24T00:59:15.340Z,11.00
2023-05-24T01:04:20.844Z,11.00
2023-05-24T01:09:34.164Z,12.50
2023-05-24T01:14:48.763Z,9.30
2023-05-24T01:20:02.395Z,6.90
2023-05-24T01:25:14.252Z,8.40
2023-05-24T01:30:20.728Z,9.10
2023-05-24T01:35:30.329Z,10.00
2023-05-24T01:40:37.378Z,11.00
2023-05-24T01:45:54.111Z,11.70
2023-05-24T01:51:01.436Z,11.90
2023-05-24T01:56:08.988Z,19.00
2023-05-24T02:01:14.832Z,23.20
2023-05-24T02:06:20.448Z,20.30
2023-05-24T02:11:26.126Z,21.50
2023-05-24T02:16:31.679Z,14.60
2023-05-24T02:21:37.350Z,13.80
2023-05-24T02:26:42.808Z,13.60
2023-05-24T02:31:52.085Z,14.60
2023-05-24T02:36:57.748Z,12.80
2023-05-24T02:42:05.920Z,12.00
2023-05-24T02:47:11.349Z,14.00
2023-05-24T02:52:21.602Z,12.20
2023-05-24T02:57:28.795Z,14.50
2023-05-24T03:02:38.479Z,14.60
2023-05-24T03:07:44.955Z,10.00
2023-05-24T03:12:50.797Z,8.80
2023-05-24T03:17:57.183Z,10.80
2023-05-24T03:23:02.824Z,12.60
2023-05-24T03:28:08.606Z,9.80
2023-05-24T03:33:14.035Z,10.70
2023-05-24T03:38:20.358Z,18.90
2023-05-24T03:43:25.985Z,10.90
2023-05-24T03:48:35.312Z,14.30
2023-05-24T03:53:40.644Z,12.60
2023-05-24T03:58:46.202Z,14.60
2023-05-24T04:03:52.591Z,20.20
2023-05-24T04:09:01.124Z,10.70
2023-05-24T04:14:06.959Z,10.70
2023-05-24T04:19:12.602Z,17.40
2023-05-24T04:24:17.994Z,12.60
2023-05-24T04:29:26.647Z,9.80
2023-05-24T04:34:35.956Z,11.40
2023-05-24T04:39:41.774Z,17.80
2023-05-24T04:44:47.444Z,9.70
2023-05-24T04:49:53.520Z,12.10
2023-05-24T04:54:59.058Z,9.60
2023-05-24T05:00:05.588Z,10.70
2023-05-24T05:05:12.679Z,12.20
2023-05-24T05:10:18.260Z,14.00
2023-05-24T05:15:24.918Z,10.80
2023-05-24T05:20:30.378Z,10.00
2023-05-24T05:25:36.030Z,11.60
2023-05-24T05:30:41.766Z,12.10
2023-05-24T05:35:47.557Z,10.70
2023-05-24T05:40:53.036Z,16.40
2023-05-24T05:45:58.583Z,10.30
2023-05-24T05:51:05.499Z,9.40
2023-05-24T05:56:18.167Z,10.20
2023-05-24T06:01:23.866Z,10.50
2023-05-24T06:06:29.426Z,11.90
2023-05-24T06:11:34.820Z,12.70
2023-05-24T06:16:43.799Z,19.00
2023-05-24T06:21:50.730Z,9.00
2023-05-24T06:26:56.741Z,13.30
2023-05-24T06:32:02.416Z,7.00
2023-05-24T06:37:10.486Z,12.90
2023-05-24T06:42:16.053Z,9.10
2023-05-24T06:47:24.449Z,9.70
2023-05-24T06:52:29.985Z,11.70
2023-05-24T06:57:35.325Z,14.10
2023-05-24T07:02:42.029Z,8.60
2023-05-24T07:07:48.162Z,5.10
2023-05-24T07:12:53.507Z,9.70
2023-05-24T07:17:58.962Z,6.70
2023-05-24T07:23:07.017Z,3.60
2023-05-24T07:28:14.275Z,6.20
2023-05-24T07:33:20.059Z,6.90
2023-05-24T07:38:26.418Z,4.80
2023-05-24T07:43:31.988Z,7.40
2023-05-24T07:48:37.569Z,5.00
2023-05-24T07:53:43.326Z,5.40
2023-05-24T07:58:49.282Z,7.40
2023-05-24T08:05:24.152Z,3.70
2023-05-24T08:10:29.647Z,5.50
2023-05-24T08:15:35.240Z,4.50
2023-05-24T08:20:40.982Z,5.60
2023-05-24T08:25:46.990Z,4.60
2023-05-24T08:30:52.778Z,5.00
2023-05-24T08:35:58.269Z,8.20
2023-05-24T08:41:08.459Z,4.40
2023-05-24T08:46:15.465Z,4.40
2023-05-24T08:51:21.686Z,6.30
2023-05-24T08:56:28.804Z,5.30
2023-05-24T09:01:37.953Z,5.80
2023-05-24T09:06:44.650Z,4.70
2023-05-24T09:11:53.591Z,8.90
2023-05-24T09:16:59.851Z,3.60
2023-05-24T09:22:05.916Z,7.40
2023-05-24T09:27:11.582Z,7.90
2023-05-24T09:32:17.557Z,7.60
2023-05-24T09:37:30.971Z,6.40
2023-05-24T09:42:38.383Z,7.50
2023-05-24T09:47:48.269Z,5.80
2023-05-24T09:52:56.129Z,5.20
2023-05-24T09:58:08.394Z,6.80
2023-05-24T10:03:15.353Z,4.80
2023-05-24T10:08:22.346Z,5.30
2023-05-24T10:13:28.429Z,4.20
2023-05-24T10:18:34.486Z,6.20
2023-05-24T10:23:43.156Z,6.20
2023-05-24T10:28:53.113Z,6.30
2023-05-24T10:34:08.007Z,5.50
2023-05-24T10:39:29.874Z,6.40
2023-05-24T10:44:35.668Z,6.30
2023-05-24T10:49:51.446Z,7.60
2023-05-24T10:55:09.586Z,9.30
2023-05-24T11:05:54.797Z,13.10
2023-05-24T11:11:24.536Z,9.20
2023-05-24T11:16:37.881Z,9.70
2023-05-24T11:21:47.051Z,9.30
2023-05-24T11:26:54.002Z,10.90
2023-05-24T11:32:05.359Z,13.10
2023-05-24T11:37:14.450Z,4.80
2023-05-24T11:42:23.619Z,4.80
2023-05-24T11:47:29.216Z,12.00
2023-05-24T11:52:38.517Z,13.30
2023-05-24T11:57:52.706Z,15.60
2023-05-24T12:03:03.023Z,9.20
2023-05-24T12:08:12.482Z,11.00
2023-05-24T12:13:24.158Z,15.60
2023-05-24T12:18:30.244Z,14.80
2023-05-24T12:23:37.211Z,16.00
2023-05-24T12:28:44.100Z,13.10
2023-05-24T12:33:53.498Z,12.40
2023-05-24T12:39:00.461Z,10.70
2023-05-24T12:44:05.998Z,11.90
2023-05-24T12:49:12.328Z,12.70
2023-05-24T12:54:20.199Z,12.40
2023-05-24T12:59:26.234Z,11.30
2023-05-24T13:04:33.913Z,15.90
2023-05-24T13:09:39.698Z,16.00
2023-05-24T13:14:45.417Z,16.30
2023-05-24T13:19:51.249Z,13.20
2023-05-24T13:24:56.775Z,19.50
2023-05-24T13:30:02.554Z,11.50
2023-05-24T13:35:09.160Z,11.60
2023-05-24T13:40:15.345Z,9.00
2023-05-24T13:45:21.650Z,9.80
2023-05-24T13:50:27.163Z,12.10
2023-05-24T13:55:37.835Z,17.30
2023-05-24T14:00:44.091Z,9.70
2023-05-24T14:05:49.978Z,10.60
2023-05-24T14:10:55.645Z,10.10
2023-05-24T14:16:01.310Z,9.60
2023-05-24T14:21:06.926Z,6.70
2023-05-24T14:26:12.620Z,6.20
2023-05-24T14:31:18.407Z,9.10
2023-05-24T14:36:23.960Z,12.00
2023-05-24T14:41:29.634Z,13.30
2023-05-24T14:46:35.125Z,5.80
2023-05-24T14:51:40.930Z,9.30
2023-05-24T14:56:46.646Z,14.30
2023-05-24T15:01:52.539Z,22.90
2023-05-24T15:06:58.117Z,13.20
2023-05-24T15:12:05.182Z,19.20
2023-05-24T15:17:11.577Z,12.70
2023-05-24T15:22:17.209Z,17.70
2023-05-24T15:27:22.906Z,10.80
2023-05-24T15:32:28.251Z,9.00
2023-05-24T15:37:33.859Z,14.00
2023-05-24T15:42:39.612Z,14.70
2023-05-24T15:47:45.358Z,14.00
2023-05-24T15:52:50.961Z,13.60
2023-05-24T15:57:58.344Z,14.70
2023-05-24T16:03:04.161Z,11.90
2023-05-24T16:08:10.577Z,15.60
2023-05-24T16:13:16.807Z,11.40
2023-05-24T16:18:23.506Z,11.90
2023-05-24T16:23:29.520Z,11.40
2023-05-24T16:28:34.996Z,15.30
2023-05-24T16:33:41.313Z,10.50
2023-05-24T16:38:47.021Z,9.90
2023-05-24T16:43:52.737Z,16.80
2023-05-24T16:48:58.834Z,15.50
2023-05-24T16:54:05.150Z,16.90
2023-05-24T16:59:10.606Z,15.90
2023-05-24T17:04:16.441Z,14.30
2023-05-24T17:09:22.469Z,13.30
2023-05-24T17:14:28.239Z,22.20
2023-05-24T17:19:34.363Z,14.60
2023-05-24T17:24:39.992Z,19.70
2023-05-24T17:29:46.009Z,13.00
2023-05-24T17:34:52.823Z,13.60
2023-05-24T17:39:58.536Z,17.40
2023-05-24T17:45:05.312Z,13.50
2023-05-24T17:50:12.319Z,13.00
2023-05-24T17:55:18.402Z,15.10
2023-05-24T18:00:24.249Z,12.40
2023-05-24T18:05:29.994Z,12.10
2023-05-24T18:10:36.526Z,15.20
2023-05-24T18:15:42.566Z,15.50
2023-05-24T18:20:48.571Z,16.70
2023-05-24T18:26:01.409Z,13.80
2023-05-24T18:31:14.744Z,11.10
2023-05-24T18:36:21.077Z,15.50
2023-05-24T18:41:27.092Z,12.00
2023-05-24T18:46:33.843Z,13.70
2023-05-24T18:51:39.409Z,11.50
2023-05-24T18:56:45.673Z,12.70
2023-05-24T19:01:53.121Z,11.10
2023-05-24T19:06:59.857Z,9.80
2023-05-24T19:12:06.402Z,10.90
2023-05-24T19:17:12.945Z,14.30
2023-05-24T19:22:19.386Z,13.20
2023-05-24T19:27:25.427Z,14.20
2023-05-24T19:32:32.188Z,11.80
2023-05-24T19:37:39.359Z,13.40
2023-05-24T19:42:45.382Z,11.40
2023-05-24T19:47:52.285Z,13.10
2023-05-24T19:52:58.360Z,12.00
2023-05-24T19:58:04.333Z,12.70
2023-05-24T20:03:10.254Z,11.80
2023-05-24T20:08:18.157Z,14.20
2023-05-24T20:13:25.016Z,15.40
2023-05-24T20:18:30.951Z,14.40
2023-05-24T20:23:37.207Z,11.90
2023-05-24T20:28:43.887Z,14.20
2023-05-24T20:33:51.642Z,11.20
2023-05-24T20:38:57.439Z,15.60
2023-05-24T20:44:03.127Z,13.70
2023-05-24T20:49:08.664Z,12.80
2023-05-24T20:54:14.121Z,16.40
2023-05-24T20:59:19.559Z,15.40
2023-05-24T21:04:25.050Z,13.50
2023-05-24T21:09:30.940Z,14.90
2023-05-24T21:14:36.876Z,15.70
2023-05-24T21:19:42.409Z,11.30
2023-05-24T21:24:48.167Z,13.00
2023-05-24T21:29:53.783Z,13.70
2023-05-24T21:34:59.226Z,12.80
2023-05-24T21:40:05.988Z,17.10
2023-05-24T21:45:12.881Z,12.10
2023-05-24T21:50:18.631Z,15.20
2023-05-24T21:55:24.495Z,13.70
2023-05-24T22:00:30.599Z,16.20
2023-05-24T22:05:36.133Z,16.20
2023-05-24T22:10:41.618Z,14.30
2023-05-24T22:15:47.247Z,16.50
2023-05-24T22:20:52.771Z,17.50
2023-05-24T22:25:58.338Z,16.90
2023-05-24T22:31:04.386Z,15.70
2023-05-24T22:36:12.401Z,15.40
2023-05-24T22:41:18.160Z,14.20
2023-05-24T22:46:24.211Z,17.30
2023-05-24T22:51:29.877Z,16.30
2023-05-24T22:56:36.161Z,15.90
2023-05-24T23:01:41.623Z,24.40
2023-05-24T23:06:47.459Z,15.60
2023-05-24T23:11:54.691Z,17.50
2023-05-24T23:17:02.713Z,17.30
2023-05-24T23:22:08.233Z,15.80
2023-05-24T23:27:13.899Z,17.80
2023-05-24T23:32:19.486Z,21.00
2023-05-24T23:37:25.007Z,18.40
2023-05-24T23:42:30.857Z,19.80
2023-05-24T23:47:36.376Z,21.50
2023-05-24T23:52:41.768Z,22.00
2023-05-24T23:57:47.642Z,22.90
